map of QLT home
Great Circle Mapper logo
QLT - Airport
Location
City:  Latina, Lazio, Italy
Name:E Comani
ICAO / IATA:LIRL / QLT

Details
Type:Airport (Aerodrome, Airfield)
Use:Public/Civil, Military
Latitude:4132'33"N (41.542436)
Longitude:1254'32"E (12.909019)
Datum:WGS 1984
Elevation:93 ft (28 m)
Runways:1
Longest:5577 × 131 ft (1700 × 40 m), paved

Time
Time Zone:UTC+1 (DST+2)
Local Time:

Weather
METAR:LIRL 301055Z 21008KT 9999 FEW020 30/23 Q1015 RMK FEW MON LIB NC VIS MIN 9999 WIND THR30 22007KT BLU

Related Locations
Nearby:
Farthest:CHT: 11938 mi / 19213 km
Waitangi [Tuuta], Chatham Islands, NZ

Find:

   beyond  
but within

Other Information
Maps:
NOTAMs:
Links:
Sources:

  
flag of Italy
flag of Lazio
  

Sectional Chart

Flight Planning
at skyvector.com

Satellite Image

Google Maps Satellite View

 

Copyright © 2004-2014 Karl L. Swartz. All rights reserved.
The Great Circle Mapper name and logo are trademarks of the Great Circle Mapper.
All other trademarks mentioned herein belong to their respective owners.
Please see credits for attibutions and further copyright information.

  Follow gcmap on Facebook Follow gcmap on Twitter

hCard Microformat

Geo Microformat